Terminal Aerodrome Forecast
Issued by NWS

Home | Current Version | Previous Version | Text Only | Print | Product List | Glossary On
Versions: 1 2 3 4 5 6 7 8 9 10 11 12 13
099
FTUS45 KPSR 200522
TAFBLH
TAF
KBLH 200522Z 2006/2106 21012KT P6SM SCT120 BKN250
     FM202000 20020G28KT P6SM -SHRA SCT050 OVC080
     FM210000 21024G32KT P6SM -SHRA OVC050=

USA.gov is the U.S. government's official web portal to all federal, state and local government web resources and services.